Time;durP1;ratioP1;P1;durP2;ratioP2;P2;SDS_P1;SDS_P2;PMS_P1;PMS_P2;Temp;Humidity;BMP_temperature;BMP_pressure;BME280_temperature;BME280_humidity;BME280_pressure;Samples;Min_cycle;Max_cycle;Signal;HPM_P1;HPM_P2
2022/06/27 00:01:48;;;;;;;;;;;28.30;45.20;;;32.48;28.65;101148.63;5113580;28;20006;-11
2022/06/27 00:04:14;;;;;;;;;;;28.30;45.20;;;32.48;28.83;101136.94;5113997;28;19922;-11
2022/06/27 00:06:39;;;;;;;;;;;28.30;45.20;;;32.42;28.58;101127.63;5113325;28;20006;-11
2022/06/27 00:09:05;;;;;;;;;;;28.30;45.20;;;32.39;28.98;101122.53;5113402;28;20432;-11
2022/06/27 00:11:32;;;;;;;;;;;28.30;45.20;;;32.45;28.59;101134.56;5095152;28;19915;-11
2022/06/27 00:13:58;;;;;;;;;;;28.30;45.20;;;32.39;28.86;101127.09;5113315;28;19915;-11
2022/06/27 00:16:24;;;;;;;;;;;28.30;45.20;;;32.40;29.05;101123.41;5113195;28;19976;-11
2022/06/27 00:18:50;;;;;;;;;;;28.30;45.20;;;32.37;28.78;101129.97;5113161;28;19919;-11
2022/06/27 00:21:16;;;;;;;;;;;28.30;45.30;;;32.40;28.40;101134.22;5113524;28;19919;-11
2022/06/27 00:23:42;;;;;;;;;;;28.20;45.30;;;32.38;28.71;101133.50;5113468;28;19920;-11
2022/06/27 00:26:08;;;;;;;;;;;28.20;45.30;;;32.40;28.79;101129.66;5113380;28;19920;-11
2022/06/27 00:28:34;;;;;;;;;;;28.20;45.30;;;32.39;28.72;101132.50;5091244;28;20360;-11
2022/06/27 00:30:59;;;;;;;;;;;28.20;45.30;;;32.44;28.65;101143.69;5113245;28;19923;-11
2022/06/27 00:33:25;;;;;;;;;;;28.30;45.30;;;32.45;28.57;101134.56;5112901;28;19963;-11
2022/06/27 00:35:53;;;;;;;;;;;28.20;45.30;;;32.44;28.90;101132.88;5113007;28;20350;-11
2022/06/27 00:38:19;;;;;;;;;;;28.30;45.40;;;32.38;28.83;101106.44;5094798;28;19915;-11
2022/06/27 00:40:45;;;;;;;;;;;28.30;45.40;;;32.38;28.45;101107.31;5112917;28;19924;-11
2022/06/27 00:43:12;;;;;;;;;;;28.30;45.40;;;32.35;28.79;101110.34;5094693;28;20009;-11
2022/06/27 00:45:38;;;;;;;;;;;28.20;45.30;;;32.38;28.84;101118.16;5111573;28;19990;-11
2022/06/27 00:48:04;;;;;;;;;;;28.20;45.30;;;32.37;29.06;101118.31;5113335;28;20374;-11
2022/06/27 00:50:30;;;;;;;;;;;28.20;45.40;;;32.36;28.87;101117.47;5112858;28;19922;-11
2022/06/27 00:52:55;;;;;;;;;;;28.20;45.40;;;32.41;28.86;101117.81;5113178;28;20271;-11
2022/06/27 00:55:21;;;;;;;;;;;28.20;45.30;;;32.40;28.61;101115.28;5113337;28;19930;-11
2022/06/27 00:57:47;;;;;;;;;;;28.20;45.30;;;32.34;28.51;101108.66;5113675;28;19924;-11
2022/06/27 01:00:13;;;;;;;;;;;28.20;45.90;;;32.38;28.55;101128.09;5116150;28;19915;-11
2022/06/27 01:02:39;;;;;;;;;;;28.20;45.40;;;32.37;28.62;101115.59;5115440;28;20352;-11
2022/06/27 01:05:06;;;;;;;;;;;28.20;45.40;;;32.34;28.66;101107.81;5114603;28;20380;-11
2022/06/27 01:07:31;;;;;;;;;;;28.20;45.40;;;32.35;28.86;101110.34;5116171;28;20387;-11
2022/06/27 01:09:58;;;;;;;;;;;28.20;45.40;;;32.38;28.94;101120.84;5097905;28;19915;-11
2022/06/27 01:12:23;;;;;;;;;;;28.20;45.50;;;32.32;28.73;101105.25;5080873;28;19916;-11
2022/06/27 01:14:50;;;;;;;;;;;28.20;45.40;;;32.32;29.00;101103.41;5097802;28;19977;-11
2022/06/27 01:17:17;;;;;;;;;;;28.20;45.40;;;32.38;29.08;101119.97;5116060;28;19922;-11
2022/06/27 01:19:43;;;;;;;;;;;28.20;45.40;;;32.29;28.65;101109.16;5114512;28;19966;-11
2022/06/27 01:22:09;;;;;;;;;;;28.20;45.40;;;32.35;28.59;101132.00;5114595;28;20371;-11
2022/06/27 01:24:36;;;;;;;;;;;28.20;45.50;;;32.29;29.03;101113.72;5098136;28;20057;-11
2022/06/27 01:27:05;;;;;;;;;;;28.20;46.10;;;32.30;28.94;101107.28;5097249;28;19916;-11
2022/06/27 01:29:31;;;;;;;;;;;28.20;45.60;;;32.36;28.59;101116.59;5096336;28;19950;-11
2022/06/27 01:31:57;;;;;;;;;;;28.20;46.00;;;32.36;28.56;101138.25;5097510;28;19923;-11
2022/06/27 01:34:23;;;;;;;;;;;28.20;45.50;;;32.36;28.61;101177.00;5115786;28;19916;-11
2022/06/27 01:36:49;;;;;;;;;;;28.10;45.60;;;32.36;28.83;101236.53;5096443;28;20280;-11
2022/06/27 01:39:22;;;;;;;;;;;28.10;45.60;;;32.28;29.03;101260.84;5097446;28;19916;-11
2022/06/27 01:41:49;;;;;;;;;;;28.10;45.60;;;32.30;28.70;101258.81;5114953;28;20363;-11
2022/06/27 01:44:15;;;;;;;;;;;28.10;45.60;;;32.31;28.87;101242.44;5095651;28;19963;-11
2022/06/27 01:46:43;;;;;;;;;;;28.10;45.60;;;32.29;28.79;101203.88;5113772;28;20379;-11
2022/06/27 01:49:10;;;;;;;;;;;28.10;45.60;;;32.30;28.93;101212.81;5114205;28;19930;-11
2022/06/27 01:51:38;;;;;;;;;;;28.10;45.60;;;32.32;28.83;101237.84;5113972;28;19916;-11
2022/06/27 01:54:06;;;;;;;;;;;28.10;45.60;;;32.35;28.69;101252.94;5097148;28;19969;-11
2022/06/27 01:56:32;;;;;;;;;;;28.10;45.60;;;32.28;28.91;101225.69;5114609;28;19915;-11
2022/06/27 01:58:58;;;;;;;;;;;28.10;45.60;;;32.32;29.07;101199.97;5113986;28;20015;-11
2022/06/27 02:01:26;;;;;;;;;;;28.10;45.60;;;32.26;29.05;101190.66;5096889;28;20383;-11
2022/06/27 02:03:52;;;;;;;;;;;28.10;45.60;;;32.32;29.11;101219.75;5114513;28;19916;-11
2022/06/27 02:06:17;;;;;;;;;;;28.10;45.60;;;32.28;28.85;101215.69;5097458;28;19915;-11
2022/06/27 02:08:46;;;;;;;;;;;28.10;45.60;;;32.25;29.12;101198.94;5096491;28;19923;-11
2022/06/27 02:11:14;;;;;;;;;;;28.10;46.10;;;32.26;28.76;101187.09;5096274;28;20419;-11
2022/06/27 02:13:41;;;;;;;;;;;28.10;45.60;;;32.31;29.06;101193.72;5095676;28;19915;-11
2022/06/27 02:16:15;;;;;;;;;;;28.10;45.60;;;32.28;28.84;101202.16;5115079;28;19959;-11
2022/06/27 02:18:42;;;;;;;;;;;28.10;45.60;;;32.27;28.75;101210.44;5112366;28;19966;-11
2022/06/27 02:21:13;;;;;;;;;;;28.10;45.70;;;32.28;28.89;101207.56;5094858;28;19916;-11
2022/06/27 02:23:39;;;;;;;;;;;28.10;45.70;;;32.27;28.69;101200.44;5114947;28;19915;-11
2022/06/27 02:26:06;;;;;;;;;;;28.10;45.70;;;32.24;29.07;101197.22;5114751;28;19957;-11
2022/06/27 02:28:32;;;;;;;;;;;28.10;45.70;;;32.28;28.80;101209.44;5115049;28;19923;-11
2022/06/27 02:31:01;;;;;;;;;;;28.10;45.60;;;32.23;29.05;101198.25;5114788;28;19916;-11
2022/06/27 02:33:35;;;;;;;;;;;28.10;45.60;;;32.22;28.68;101200.09;5115418;28;20271;-11
2022/06/27 02:36:03;;;;;;;;;;;28.10;45.60;;;32.23;29.05;101190.13;5114962;28;19923;-11
2022/06/27 02:38:29;;;;;;;;;;;28.10;45.60;;;32.25;28.93;101183.53;5114530;28;19926;-11
2022/06/27 02:40:57;;;;;;;;;;;28.10;45.60;;;32.20;28.75;101169.66;5096387;28;19923;-11
2022/06/27 02:43:25;;;;;;;;;;;28.10;45.70;;;32.26;28.82;101177.13;5095325;28;19916;-10
2022/06/27 02:45:51;;;;;;;;;;;28.00;45.60;;;32.26;29.01;101179.84;5114802;28;20282;-11
2022/06/27 02:48:18;;;;;;;;;;;28.10;45.70;;;32.22;29.07;101174.91;5096237;28;19917;-11
2022/06/27 02:50:46;;;;;;;;;;;28.10;45.70;;;32.24;29.04;101171.00;5096092;28;20264;-11
2022/06/27 02:53:14;;;;;;;;;;;28.10;45.60;;;32.20;29.05;101161.53;5113160;28;19984;-11
2022/06/27 02:55:50;;;;;;;;;;;28.10;45.60;;;32.22;29.13;101159.50;5081118;28;19961;-11
2022/06/27 02:58:23;;;;;;;;;;;28.10;45.60;;;32.18;28.73;101158.16;5096396;28;20006;-11
2022/06/27 03:00:51;;;;;;;;;;;28.00;45.60;;;32.23;28.75;101171.19;5094233;28;20391;-11
2022/06/27 03:03:17;;;;;;;;;;;28.10;45.70;;;32.20;28.64;101158.00;5096086;28;19923;-11
2022/06/27 03:05:59;;;;;;;;;;;28.10;45.70;;;32.22;29.05;101169.50;5096398;28;20026;-11
2022/06/27 03:08:26;;;;;;;;;;;28.00;45.60;;;32.18;28.76;101171.69;5096703;28;19947;-11
2022/06/27 03:10:51;;;;;;;;;;;28.00;45.60;;;32.22;29.07;101191.97;5093775;28;19923;-11
2022/06/27 03:13:17;;;;;;;;;;;28.10;45.70;;;32.22;28.75;101180.31;5095811;28;19927;-11
2022/06/27 03:15:43;;;;;;;;;;;28.00;45.70;;;32.19;28.86;101177.94;5112678;28;20379;-11
2022/06/27 03:18:12;;;;;;;;;;;28.00;45.60;;;32.21;28.79;101198.41;5112719;28;20014;-11
2022/06/27 03:21:02;;;;;;;;;;;28.00;45.60;;;32.21;29.29;101211.94;5100474;28;20389;-11
2022/06/27 03:23:34;;;;;;;;;;;28.00;45.70;;;32.19;28.78;101215.81;5113612;28;20398;-11
2022/06/27 03:26:01;;;;;;;;;;;28.00;45.70;;;32.17;29.08;101205.16;5096721;28;19920;-13
2022/06/27 03:28:32;;;;;;;;;;;28.00;45.70;;;32.18;29.15;101189.75;5097006;28;20463;-11
2022/06/27 03:31:00;;;;;;;;;;;28.00;45.70;;;32.15;29.24;101201.75;5094222;28;19916;-11
2022/06/27 03:33:27;;;;;;;;;;;28.00;45.70;;;32.22;28.76;101234.44;5095617;28;19922;-11
2022/06/27 03:36:01;;;;;;;;;;;28.00;45.70;;;32.21;28.71;101276.00;5096258;28;19915;-11
2022/06/27 03:38:26;;;;;;;;;;;28.00;45.70;;;32.21;28.73;101289.53;5095784;28;20083;-11
2022/06/27 03:40:53;;;;;;;;;;;28.00;46.00;;;32.22;29.07;101308.31;5113979;28;20376;-11
2022/06/27 03:43:19;;;;;;;;;;;28.00;45.70;;;32.15;29.11;101258.56;5093511;28;19917;-11
2022/06/27 03:45:46;;;;;;;;;;;28.00;45.70;;;32.17;29.08;101239.47;5095728;28;19916;-11
2022/06/27 03:49:59;;;;;;;;;;;28.00;45.70;;;32.15;28.81;101206.34;5112322;28;19916;-11
2022/06/27 03:51:16;;;;;;;;;;;28.00;45.70;;;32.13;29.19;101198.38;5113714;28;19938;-11
2022/06/27 03:53:42;;;;;;;;;;;28.00;45.70;;;32.19;29.20;101202.28;5095556;28;19919;-11
2022/06/27 03:56:08;;;;;;;;;;;28.00;45.70;;;32.20;28.97;101175.06;5113452;28;19916;-11
2022/06/27 03:58:33;;;;;;;;;;;28.00;45.70;;;32.20;28.89;101168.81;5093925;28;20407;-11
2022/06/27 04:01:01;;;;;;;;;;;28.00;45.60;;;32.15;28.88;101149.53;5094728;28;20010;-11
2022/06/27 04:03:27;;;;;;;;;;;28.00;45.70;;;32.18;29.00;101166.28;5111182;28;19916;-11
2022/06/27 04:05:54;;;;;;;;;;;28.00;45.70;;;32.18;29.03;101168.09;5113344;28;19916;-11
2022/06/27 04:08:21;;;;;;;;;;;28.00;45.80;;;32.12;28.88;101156.09;5095359;28;19959;-11
2022/06/27 04:10:46;;;;;;;;;;;28.00;45.80;;;32.17;29.05;101182.66;5111393;28;19927;-11
2022/06/27 04:13:16;;;;;;;;;;;28.00;45.80;;;32.11;28.79;101171.47;5128470;28;20283;-11
2022/06/27 04:16:00;;;;;;;;;;;28.00;45.80;;;32.13;29.23;101158.63;5113340;28;19954;-11
2022/06/27 04:18:44;;;;;;;;;;;28.00;45.80;;;32.07;28.79;101147.63;5113086;28;20404;-11
2022/06/27 04:21:29;;;;;;;;;;;27.90;45.80;;;32.09;29.23;101142.88;5113521;28;20275;-11
2022/06/27 04:24:08;;;;;;;;;;;27.90;45.80;;;32.08;29.13;101136.63;5095635;28;19915;-11
2022/06/27 04:26:54;;;;;;;;;;;27.90;45.80;;;32.12;29.19;101148.81;5112670;28;19919;-11
2022/06/27 04:29:21;;;;;;;;;;;27.90;45.80;;;32.12;28.97;101162.34;5113361;28;19916;-11
2022/06/27 04:31:46;;;;;;;;;;;27.90;45.80;;;32.08;29.02;101147.47;5110930;28;20371;-11
2022/06/27 04:34:12;;;;;;;;;;;27.90;45.80;;;32.12;29.17;101139.84;5097545;28;19941;-11
2022/06/27 04:36:44;;;;;;;;;;;27.90;45.80;;;32.12;28.84;101126.34;5116061;28;19922;-11
2022/06/27 04:39:13;;;;;;;;;;;27.90;45.80;;;32.10;29.02;101112.97;5116659;28;19916;-11
2022/06/27 04:41:45;;;;;;;;;;;27.90;45.90;;;32.11;28.96;101086.75;5116625;28;19915;-11
2022/06/27 04:44:11;;;;;;;;;;;27.90;45.90;;;32.10;29.21;101053.47;5098581;28;19916;-11
2022/06/27 04:46:38;;;;;;;;;;;27.90;45.90;;;32.05;29.07;101060.34;5098541;28;19916;-11
2022/06/27 04:49:24;;;;;;;;;;;27.90;45.90;;;32.03;29.33;101078.63;5116459;28;19922;-11
2022/06/27 04:51:50;;;;;;;;;;;27.90;45.80;;;32.08;29.37;101103.34;5115114;28;19952;-11
2022/06/27 04:54:17;;;;;;;;;;;27.90;45.80;;;32.07;28.97;101105.19;5116843;28;19915;-11
2022/06/27 04:56:44;;;;;;;;;;;27.90;45.80;;;32.04;29.40;101104.63;5116486;28;19923;-11
2022/06/27 04:59:10;;;;;;;;;;;27.90;45.80;;;32.07;29.14;101107.03;5114933;28;20291;-11
2022/06/27 05:01:37;;;;;;;;;;;27.90;45.80;;;32.10;29.28;101109.44;5099896;28;19923;-11
2022/06/27 05:04:07;;;;;;;;;;;27.90;45.80;;;32.05;29.01;101099.06;5114873;28;20432;-11
2022/06/27 05:06:36;;;;;;;;;;;27.90;45.80;;;32.04;28.97;101100.06;5114205;28;20006;-11
2022/06/27 05:09:05;;;;;;;;;;;27.90;45.90;;;32.06;29.19;101089.97;5099009;28;19923;-11
2022/06/27 05:11:31;;;;;;;;;;;27.90;45.80;;;32.10;28.95;101104.84;5114750;28;19915;-11
2022/06/27 05:13:57;;;;;;;;;;;27.90;45.80;;;32.06;29.03;101083.66;5097678;28;19922;-11
2022/06/27 05:16:34;;;;;;;;;;;27.90;45.80;;;32.11;29.36;101084.06;5098233;28;19919;-11
2022/06/27 05:19:01;;;;;;;;;;;27.90;45.80;;;32.06;28.93;101076.44;5098065;28;20272;-11
2022/06/27 05:21:27;;;;;;;;;;;27.90;45.80;;;32.06;29.33;101079.16;5114164;28;19923;-11
2022/06/27 05:23:53;;;;;;;;;;;27.90;45.70;;;32.08;29.22;101090.66;5114619;28;19915;-11
2022/06/27 05:26:19;;;;;;;;;;;27.90;45.80;;;32.13;29.01;101111.81;5115799;28;20031;-11
2022/06/27 05:28:45;;;;;;;;;;;27.90;45.70;;;32.14;29.16;101121.59;5114151;28;19915;-11
2022/06/27 05:31:11;;;;;;;;;;;27.90;45.70;;;32.15;29.26;101128.72;5096613;28;19930;-11
2022/06/27 05:33:37;;;;;;;;;;;28.00;45.80;;;32.15;28.85;101122.47;5112873;28;20387;-11
2022/06/27 05:36:05;;;;;;;;;;;27.90;45.70;;;32.13;28.98;101120.75;5115551;28;20363;-10
2022/06/27 05:38:31;;;;;;;;;;;27.90;45.70;;;32.17;29.06;101123.16;5113431;28;19967;-11
2022/06/27 05:40:58;;;;;;;;;;;28.00;45.70;;;32.13;29.20;101117.22;5096216;28;20014;-11
2022/06/27 05:43:24;;;;;;;;;;;28.00;45.60;;;32.18;29.22;101117.56;5097464;28;19916;-11
2022/06/27 05:45:50;;;;;;;;;;;28.10;45.50;;;32.21;28.93;101103.72;5113481;28;19916;-11
2022/06/27 05:48:47;;;;;;;;;;;28.20;45.50;;;32.22;28.90;101082.91;5097602;28;20312;-13
2022/06/27 05:51:28;;;;;;;;;;;28.20;45.40;;;32.27;28.91;101080.56;5114208;28;20365;-11
2022/06/27 05:54:00;;;;;;;;;;;28.20;45.40;;;32.24;28.85;101076.31;5113915;28;19923;-10
2022/06/27 05:56:30;;;;;;;;;;;28.20;45.40;;;32.32;29.10;101087.16;5114380;28;19916;-11
2022/06/27 05:58:58;;;;;;;;;;;28.20;45.40;;;32.35;28.96;101083.28;5114185;28;20014;-11
2022/06/27 06:01:25;;;;;;;;;;;28.20;45.30;;;32.36;29.03;101073.31;5097177;28;19977;-11
2022/06/27 06:03:53;;;;;;;;;;;28.20;45.30;;;32.35;29.00;101072.47;5113702;28;19915;-11
2022/06/27 06:06:21;;;;;;;;;;;28.20;45.30;;;32.38;28.60;101077.56;5095447;28;19916;-11
2022/06/27 06:08:47;;;;;;;;;;;28.20;45.30;;;32.31;28.58;101058.44;5113352;28;20003;-11
2022/06/27 06:11:13;;;;;;;;;;;28.20;45.30;;;32.35;28.99;101068.94;5111463;28;19931;-11
2022/06/27 06:13:39;;;;;;;;;;;28.20;45.30;;;32.35;28.67;101067.06;5112486;28;19923;-11
2022/06/27 06:16:06;;;;;;;;;;;28.20;45.40;;;32.39;28.99;101072.97;5094739;28;19931;-11
2022/06/27 06:18:33;;;;;;;;;;;28.20;45.40;;;32.30;28.74;101054.03;5112861;28;19916;-11
2022/06/27 06:21:00;;;;;;;;;;;28.20;45.40;;;32.38;28.73;101064.03;5095607;28;20018;-11
2022/06/27 06:23:27;;;;;;;;;;;28.20;45.50;;;32.37;28.88;101056.06;5096965;28;20007;-11
2022/06/27 06:25:54;;;;;;;;;;;28.20;45.50;;;32.31;28.67;101046.75;5111132;28;19916;-11
2022/06/27 06:28:20;;;;;;;;;;;28.20;45.50;;;32.32;29.08;101046.56;5113004;28;19916;-11
2022/06/27 06:30:47;;;;;;;;;;;28.20;45.50;;;32.31;28.76;101038.63;5096426;28;19916;-13
2022/06/27 06:33:13;;;;;;;;;;;28.20;45.50;;;32.38;28.87;101052.34;5113666;28;20252;-13
2022/06/27 06:35:39;;;;;;;;;;;28.20;45.40;;;32.39;28.89;101048.63;5113562;28;19957;-11
2022/06/27 06:38:07;;;;;;;;;;;28.20;45.40;;;32.38;29.06;101057.75;5113176;28;19916;-10
2022/06/27 06:40:33;;;;;;;;;;;28.20;45.40;;;32.37;28.99;101051.50;5113777;28;19916;-11
2022/06/27 06:43:03;;;;;;;;;;;28.20;45.40;;;32.38;28.95;101061.31;5112074;28;19916;-10
2022/06/27 06:45:47;;;;;;;;;;;28.20;45.40;;;32.37;28.51;101051.50;5114422;28;19930;-11
2022/06/27 06:48:19;;;;;;;;;;;28.20;45.40;;;32.32;28.78;101040.31;5113621;28;19915;-11
2022/06/27 06:50:45;;;;;;;;;;;28.20;45.40;;;32.30;28.65;101043.19;5113084;28;20010;-11
2022/06/27 06:53:11;;;;;;;;;;;28.20;45.40;;;32.38;29.03;101060.44;5114224;28;20006;-11
2022/06/27 06:55:37;;;;;;;;;;;28.20;45.40;;;32.37;28.67;101061.47;5114275;28;19915;-11
2022/06/27 06:58:02;;;;;;;;;;;28.20;45.50;;;32.38;28.76;101063.16;5114392;28;20046;-11
2022/06/27 07:00:28;;;;;;;;;;;28.20;45.50;;;32.35;28.59;101056.22;5114472;28;19964;-11
2022/06/27 07:02:55;;;;;;;;;;;28.20;45.50;;;32.35;28.96;101061.66;5114112;28;19930;-11
2022/06/27 07:05:21;;;;;;;;;;;28.20;45.50;;;32.38;28.95;101069.44;5114127;28;19972;-11
2022/06/27 07:07:51;;;;;;;;;;;28.20;45.40;;;32.31;28.65;101055.72;5114139;28;19998;-11
2022/06/27 07:10:17;;;;;;;;;;;28.20;45.40;;;32.39;28.83;101071.09;5114063;28;19915;-11
2022/06/27 07:12:42;;;;;;;;;;;28.20;45.40;;;32.36;28.83;101074.19;5113940;28;19915;-11
2022/06/27 07:15:12;;;;;;;;;;;28.20;45.40;;;32.37;28.99;101075.84;5113825;28;20352;-11
2022/06/27 07:17:46;;;;;;;;;;;28.20;45.40;;;32.40;29.07;101107.16;5114267;28;19915;-11
2022/06/27 07:20:13;;;;;;;;;;;28.20;45.40;;;32.38;28.80;101122.69;5114206;28;19916;-11
2022/06/27 07:22:40;;;;;;;;;;;28.20;45.40;;;32.41;28.48;101135.91;5113882;28;20375;-11
2022/06/27 07:25:07;;;;;;;;;;;28.20;45.40;;;32.40;28.69;101147.75;5113889;28;20489;-11
2022/06/27 07:27:34;;;;;;;;;;;28.20;45.50;;;32.37;29.01;101139.97;5113824;28;20224;-11
2022/06/27 07:30:03;;;;;;;;;;;28.20;45.50;;;32.34;28.89;101135.72;5113549;28;20002;-11
2022/06/27 07:32:29;;;;;;;;;;;28.20;45.60;;;32.33;28.89;101144.84;5114041;28;20279;-11
2022/06/27 07:34:57;;;;;;;;;;;28.20;45.60;;;32.32;29.22;101144.00;5113592;28;20314;-11
2022/06/27 07:37:23;;;;;;;;;;;28.20;45.80;;;32.34;28.98;101148.41;5113591;28;20307;-11
2022/06/27 07:39:49;;;;;;;;;;;28.10;45.70;;;32.34;29.08;101151.94;5112989;28;19978;-11
2022/06/27 07:42:15;;;;;;;;;;;28.20;45.70;;;32.32;28.75;101141.28;5095113;28;19923;-11
2022/06/27 07:44:41;;;;;;;;;;;28.10;45.70;;;32.32;28.80;101129.63;5112988;28;19919;-11
2022/06/27 07:47:08;;;;;;;;;;;28.10;45.80;;;32.35;29.05;101156.34;5113440;28;19964;-11
2022/06/27 07:49:34;;;;;;;;;;;28.10;45.90;;;32.34;29.28;101153.81;5113003;28;20287;-11
2022/06/27 07:52:00;;;;;;;;;;;28.10;46.30;;;32.33;29.07;101150.28;5113309;28;19916;-11
2022/06/27 07:54:27;;;;;;;;;;;28.10;46.60;;;32.28;29.76;101133.69;5113290;28;20006;-11
2022/06/27 07:56:53;;;;;;;;;;;28.10;46.60;;;32.31;29.23;101128.78;5113215;28;20015;-11
2022/06/27 07:59:19;;;;;;;;;;;28.10;46.60;;;32.30;29.56;101118.97;5113202;28;20284;-11
2022/06/27 08:01:45;;;;;;;;;;;28.10;46.60;;;32.28;29.55;101117.44;5113761;28;19930;-11
2022/06/27 08:04:14;;;;;;;;;;;28.10;46.50;;;32.32;29.29;101127.75;5113252;28;20268;-11
2022/06/27 08:06:41;;;;;;;;;;;28.10;46.40;;;32.31;29.32;101133.31;5113072;28;19916;-11
2022/06/27 08:09:09;;;;;;;;;;;28.10;46.50;;;32.30;29.31;101116.25;5119637;28;20024;-11
2022/06/27 08:11:42;;;;;;;;;;;28.10;46.40;;;32.29;29.69;101103.75;5118449;28;19993;-11
2022/06/27 08:14:11;;;;;;;;;;;28.10;46.40;;;32.33;29.18;101115.09;5120315;28;20006;-11
2022/06/27 08:16:39;;;;;;;;;;;28.10;46.30;;;32.30;29.53;101110.84;5119666;28;20037;-11
2022/06/27 08:19:06;;;;;;;;;;;28.20;46.30;;;32.35;29.21;101123.03;5119663;28;19922;-11
2022/06/27 08:21:34;;;;;;;;;;;28.20;46.20;;;32.39;29.42;101127.94;5100744;28;19923;-12
2022/06/27 08:24:03;;;;;;;;;;;28.20;46.10;;;32.40;29.42;101131.50;5119542;28;20057;-11
2022/06/27 08:26:31;;;;;;;;;;;28.20;46.10;;;32.35;29.07;101120.34;5119907;28;20275;-12
2022/06/27 08:29:02;;;;;;;;;;;28.20;46.20;;;32.40;29.08;101134.22;5119730;28;20375;-12
2022/06/27 08:31:30;;;;;;;;;;;28.20;46.20;;;32.41;29.01;101138.59;5119524;28;19923;-11
2022/06/27 08:34:00;;;;;;;;;;;28.20;46.20;;;32.41;28.98;101135.91;5119663;28;20317;-11
2022/06/27 08:36:30;;;;;;;;;;;28.20;46.20;;;32.41;28.92;101128.66;5119419;28;19985;-12
2022/06/27 08:38:58;;;;;;;;;;;28.20;46.20;;;32.36;29.04;101130.13;5101859;28;19919;-11
2022/06/27 08:41:24;;;;;;;;;;;28.20;46.20;;;32.37;29.32;101134.53;5119124;28;19916;-11
2022/06/27 08:44:00;;;;;;;;;;;28.20;46.20;;;32.39;29.50;101140.63;5119535;28;19992;-11
2022/06/27 08:46:27;;;;;;;;;;;28.10;46.20;;;32.32;29.29;101130.47;5120022;28;19915;-11
2022/06/27 08:48:55;;;;;;;;;;;28.10;46.20;;;32.32;29.06;101135.88;5119381;28;20006;-11
2022/06/27 08:51:23;;;;;;;;;;;28.10;46.20;;;32.33;28.98;101142.16;5119115;28;20090;-12
2022/06/27 08:53:55;;;;;;;;;;;28.10;46.20;;;32.31;29.20;101150.44;5119485;28;19916;-11
2022/06/27 08:56:24;;;;;;;;;;;28.10;46.30;;;32.29;29.20;101149.75;5118993;27;19930;-12
2022/06/27 08:58:52;;;;;;;;;;;28.10;46.30;;;32.33;29.40;101155.69;5101196;28;19969;-11
2022/06/27 09:01:22;;;;;;;;;;;28.10;46.30;;;32.36;29.57;101157.19;5119502;28;20258;-12
2022/06/27 09:04:00;;;;;;;;;;;28.10;46.30;;;32.30;29.36;101132.47;5119397;28;20405;-11
2022/06/27 09:06:35;;;;;;;;;;;28.10;46.30;;;32.31;28.98;101119.78;5119412;28;19915;-12
2022/06/27 09:09:08;;;;;;;;;;;28.10;46.30;;;32.33;29.32;101120.50;5119706;28;19915;-12
2022/06/27 09:11:37;;;;;;;;;;;28.20;46.30;;;32.32;29.17;101107.97;5119594;28;19922;-11
2022/06/27 09:14:05;;;;;;;;;;;28.20;46.20;;;32.39;29.34;101121.69;5118963;28;19922;-12
2022/06/27 09:16:32;;;;;;;;;;;28.20;46.10;;;32.43;29.23;101131.19;5117712;28;20411;-12
2022/06/27 09:18:59;;;;;;;;;;;28.20;46.10;;;32.43;29.22;101126.63;5116501;28;19960;-12
2022/06/27 09:21:27;;;;;;;;;;;28.20;46.10;;;32.44;29.04;101130.16;5114732;28;19915;-12
2022/06/27 09:23:55;;;;;;;;;;;28.20;46.10;;;32.41;29.11;101111.53;5114124;28;19915;-13
2022/06/27 09:26:21;;;;;;;;;;;28.20;46.10;;;32.46;28.96;101126.28;5113097;28;20027;-12
2022/06/27 09:28:50;;;;;;;;;;;28.20;46.10;;;32.46;29.08;101133.53;5114025;28;19921;-12
2022/06/27 09:31:28;;;;;;;;;;;28.30;46.10;;;32.49;29.32;101146.75;5110017;28;19915;-12
2022/06/27 09:34:16;;;;;;;;;;;28.20;46.00;;;32.49;29.00;101149.44;5114672;28;19923;-12
2022/06/27 09:36:42;;;;;;;;;;;28.30;46.10;;;32.44;29.33;101159.94;5114494;28;19955;-12
2022/06/27 09:39:17;;;;;;;;;;;28.30;46.10;;;32.46;29.09;101164.19;5114658;28;19916;-12
2022/06/27 09:41:46;;;;;;;;;;;28.20;46.00;;;32.48;29.37;101161.31;5115098;28;20009;-12
2022/06/27 09:44:15;;;;;;;;;;;28.20;46.10;;;32.47;28.97;101165.03;5097343;28;19923;-13
2022/06/27 09:46:44;;;;;;;;;;;28.20;46.00;;;32.48;29.20;101150.50;5114784;28;19959;-11
2022/06/27 09:49:14;;;;;;;;;;;28.20;46.10;;;32.46;29.02;101125.41;5095958;28;20253;-12
2022/06/27 09:51:40;;;;;;;;;;;28.20;46.00;;;32.46;29.24;101122.72;5115490;28;19938;-12
2022/06/27 09:54:16;;;;;;;;;;;28.30;46.10;;;32.47;29.37;101122.56;5115221;28;19923;-12
2022/06/27 09:56:45;;;;;;;;;;;28.30;46.10;;;32.48;29.18;101126.13;5115362;28;20027;-12
2022/06/27 09:59:12;;;;;;;;;;;28.30;46.10;;;32.53;28.98;101128.31;5115395;28;19922;-12
2022/06/27 10:01:42;;;;;;;;;;;28.30;46.10;;;32.48;29.03;101129.66;5114938;28;19922;-11
2022/06/27 10:04:09;;;;;;;;;;;28.30;46.00;;;32.52;28.99;101129.34;5114634;28;19938;-12
2022/06/27 10:06:39;;;;;;;;;;;28.30;46.00;;;32.43;29.01;101125.78;5114945;28;20006;-12
2022/06/27 10:09:08;;;;;;;;;;;28.40;46.10;;;32.54;29.08;101133.56;5112906;28;20264;-12
2022/06/27 10:11:36;;;;;;;;;;;28.40;46.20;;;32.57;29.32;101132.41;5095773;28;19915;-15
2022/06/27 10:14:16;;;;;;;;;;;28.40;46.40;;;32.41;29.41;101112.41;5112878;28;19920;-13
2022/06/27 10:17:24;;;;;;;;;;;28.30;46.30;;;32.49;29.43;101141.34;5098216;28;20363;-12
2022/06/27 10:20:20;;;;;;;;;;;28.40;46.30;;;32.45;29.50;101146.25;5110532;28;19915;-12
2022/06/27 10:23:04;;;;;;;;;;;28.30;46.20;;;32.50;29.67;101146.59;5111084;28;19960;-12
2022/06/27 10:25:56;;;;;;;;;;;28.30;46.40;;;32.50;29.54;101154.72;5113514;28;19915;-13
2022/06/27 10:28:22;;;;;;;;;;;28.30;46.40;;;32.45;29.70;101143.53;5112079;28;19945;-12
2022/06/27 10:31:02;;;;;;;;;;;28.30;46.40;;;32.46;29.63;101133.53;5110112;28;19968;-12
2022/06/27 10:33:35;;;;;;;;;;;28.20;46.40;;;32.48;29.29;101129.66;5112164;28;20332;-11
2022/06/27 10:36:02;;;;;;;;;;;28.20;46.40;;;32.45;29.27;101123.75;5111383;28;20325;-12
2022/06/27 10:38:39;;;;;;;;;;;28.30;46.50;;;32.43;29.19;101120.38;5111719;28;20430;-13
2022/06/27 10:41:30;;;;;;;;;;;28.20;46.40;;;32.49;29.39;101141.34;5113496;28;19935;-13
2022/06/27 10:43:59;;;;;;;;;;;28.20;46.40;;;32.49;29.16;101152.16;5108482;28;19919;-13
2022/06/27 10:46:24;;;;;;;;;;;28.20;46.40;;;32.51;29.16;101150.13;5112768;28;20006;-13
2022/06/27 10:48:54;;;;;;;;;;;28.20;46.40;;;32.51;29.20;101147.41;5112891;28;19939;-12
2022/06/27 10:51:22;;;;;;;;;;;28.20;46.40;;;32.41;29.21;101131.34;5112448;28;19961;-12
2022/06/27 10:54:06;;;;;;;;;;;28.20;46.40;;;32.52;29.52;101148.28;5113608;28;19959;-12
2022/06/27 10:56:34;;;;;;;;;;;28.20;46.40;;;32.49;29.20;101135.91;5114050;28;19929;-12
2022/06/27 10:59:08;;;;;;;;;;;28.20;46.40;;;32.52;29.52;101146.41;5113625;28;19916;-12
2022/06/27 11:01:34;;;;;;;;;;;28.30;46.50;;;32.47;29.30;101135.25;5113450;28;19915;-12
2022/06/27 11:04:01;;;;;;;;;;;28.20;46.40;;;32.51;29.57;101131.19;5113602;28;20389;-12
2022/06/27 11:06:28;;;;;;;;;;;28.20;46.50;;;32.45;29.50;101118.34;5094770;28;19964;-12
2022/06/27 11:08:56;;;;;;;;;;;28.20;46.50;;;32.45;29.23;101119.16;5094961;28;19916;-12
2022/06/27 11:11:26;;;;;;;;;;;28.20;46.60;;;32.43;29.28;101121.19;5113477;28;19923;-13
2022/06/27 11:13:58;;;;;;;;;;;28.20;46.60;;;32.43;29.27;101121.19;5113933;28;19964;-12
2022/06/27 11:16:29;;;;;;;;;;;28.20;46.60;;;32.49;29.46;101136.78;5113474;28;19962;-12
2022/06/27 11:18:59;;;;;;;;;;;28.20;46.60;;;32.48;29.63;101134.25;5113147;28;20391;-12